Time;durP1;ratioP1;P1;durP2;ratioP2;P2;SDS_P1;SDS_P2;PMS_P1;PMS_P2;Temp;Humidity;BMP_temperature;BMP_pressure;BME280_temperature;BME280_humidity;BME280_pressure;Samples;Min_cycle;Max_cycle;Signal;HPM_P1;HPM_P2
2020/12/19 00:00:17;;;;;;;;;;;22.90;42.30;;;;;;1570142;74;720;-71
2020/12/19 00:02:19;;;;;;;;;;;22.80;42.60;;;;;;1565305;74;721;-72
2020/12/19 00:04:21;;;;;;;;;;;22.70;42.70;;;;;;1566511;74;740;-71
2020/12/19 00:06:23;;;;;;;;;;;22.80;42.90;;;;;;1567327;74;839;-70
2020/12/19 00:08:25;;;;;;;;;;;22.70;43.20;;;;;;1569351;74;1955;-71
2020/12/19 00:10:27;;;;;;;;;;;22.60;43.40;;;;;;1560510;74;691;-70
2020/12/19 00:12:29;;;;;;;;;;;22.70;43.40;;;;;;1563120;74;762;-71
2020/12/19 00:14:31;;;;;;;;;;;22.70;43.70;;;;;;1548636;74;729;-71
2020/12/19 00:16:32;;;;;;;;;;;22.60;43.80;;;;;;1550350;74;735;-71
2020/12/19 00:18:34;;;;;;;;;;;22.60;44.40;;;;;;1555508;74;1226;-72
2020/12/19 00:20:36;;;;;;;;;;;22.50;44.30;;;;;;1551040;74;702;-71
2020/12/19 00:22:38;;;;;;;;;;;22.60;44.00;;;;;;1569035;74;688;-71
2020/12/19 00:24:40;;;;;;;;;;;22.50;43.90;;;;;;1572431;74;735;-72
2020/12/19 00:26:42;;;;;;;;;;;22.60;43.90;;;;;;1567636;74;796;-71
2020/12/19 00:28:44;;;;;;;;;;;22.70;43.60;;;;;;1569457;74;1943;-70
2020/12/19 00:30:46;;;;;;;;;;;22.70;43.80;;;;;;1571089;74;657;-70
2020/12/19 00:32:48;;;;;;;;;;;22.70;43.40;;;;;;1569992;74;598;-70
2020/12/19 00:34:49;;;;;;;;;;;22.80;43.50;;;;;;1572722;74;757;-71
2020/12/19 00:36:51;;;;;;;;;;;22.80;43.50;;;;;;1568625;74;729;-71
2020/12/19 00:38:53;;;;;;;;;;;22.80;43.50;;;;;;1574490;74;1160;-70
2020/12/19 00:40:55;;;;;;;;;;;22.80;43.60;;;;;;1574802;74;759;-71
2020/12/19 00:42:57;;;;;;;;;;;22.80;43.50;;;;;;1572282;74;682;-71
2020/12/19 00:44:59;;;;;;;;;;;22.70;43.50;;;;;;1561252;74;750;-72
2020/12/19 00:47:01;;;;;;;;;;;22.80;43.40;;;;;;1559121;74;706;-71
2020/12/19 00:49:04;;;;;;;;;;;22.80;43.40;;;;;;1557826;74;1940;-72
2020/12/19 00:51:07;;;;;;;;;;;22.80;43.50;;;;;;1565654;74;691;-70
2020/12/19 00:53:09;;;;;;;;;;;22.80;43.80;;;;;;1566510;74;1084;-72
2020/12/19 00:55:11;;;;;;;;;;;22.70;43.80;;;;;;1569710;74;708;-72
2020/12/19 00:57:13;;;;;;;;;;;22.80;44.00;;;;;;1572799;74;743;-70
2020/12/19 00:59:15;;;;;;;;;;;22.80;43.90;;;;;;1573300;74;1133;-70
2020/12/19 01:01:17;;;;;;;;;;;22.80;44.10;;;;;;1567123;74;732;-69
2020/12/19 01:03:19;;;;;;;;;;;22.70;44.10;;;;;;1569408;74;726;-70
2020/12/19 01:05:21;;;;;;;;;;;23.10;44.20;;;;;;1572280;74;751;-71
2020/12/19 01:07:23;;;;;;;;;;;22.90;43.90;;;;;;1568729;74;732;-72
2020/12/19 01:09:25;;;;;;;;;;;23.00;43.80;;;;;;1567428;74;1959;-71
2020/12/19 01:11:27;;;;;;;;;;;22.90;43.90;;;;;;1568872;74;717;-70
2020/12/19 01:13:29;;;;;;;;;;;22.90;43.70;;;;;;1571050;74;762;-72
2020/12/19 01:15:31;;;;;;;;;;;23.00;43.60;;;;;;1572042;74;712;-73
2020/12/19 01:17:33;;;;;;;;;;;23.00;43.70;;;;;;1567242;74;1172;-73
2020/12/19 01:19:35;;;;;;;;;;;23.00;43.60;;;;;;1572149;74;743;-72
2020/12/19 01:21:37;;;;;;;;;;;23.00;43.70;;;;;;1568667;74;745;-71
2020/12/19 01:23:39;;;;;;;;;;;22.90;44.00;;;;;;1572410;74;783;-71
2020/12/19 01:25:40;;;;;;;;;;;22.90;44.40;;;;;;1555749;76;699;-72
2020/12/19 01:27:42;;;;;;;;;;;22.90;44.40;;;;;;1555177;75;1168;-70
2020/12/19 01:29:44;;;;;;;;;;;22.90;44.40;;;;;;1552824;75;1971;-70
2020/12/19 01:31:46;;;;;;;;;;;22.90;44.50;;;;;;1555346;75;669;-71
2020/12/19 01:33:48;;;;;;;;;;;22.90;44.70;;;;;;1555451;75;932;-71
2020/12/19 01:35:50;;;;;;;;;;;22.90;44.40;;;;;;1573398;74;790;-70
2020/12/19 01:37:52;;;;;;;;;;;23.00;44.30;;;;;;1574164;74;1165;-73
2020/12/19 01:39:53;;;;;;;;;;;23.00;44.30;;;;;;1568707;74;787;-71
2020/12/19 01:41:55;;;;;;;;;;;22.90;44.10;;;;;;1565583;74;738;-71
2020/12/19 01:43:58;;;;;;;;;;;23.00;44.10;;;;;;1570832;74;706;-71
2020/12/19 01:45:59;;;;;;;;;;;23.00;44.00;;;;;;1571806;74;715;-70
2020/12/19 01:48:01;;;;;;;;;;;23.00;43.90;;;;;;1568248;74;1141;-71
2020/12/19 01:50:07;;;;;;;;;;;23.00;43.90;;;;;;1573747;74;1933;-71
2020/12/19 01:52:09;;;;;;;;;;;23.00;43.90;;;;;;1567588;74;732;-70
2020/12/19 01:54:11;;;;;;;;;;;23.00;43.80;;;;;;1570790;74;701;-73
2020/12/19 01:56:12;;;;;;;;;;;23.00;43.70;;;;;;1572423;74;595;-71
2020/12/19 01:58:14;;;;;;;;;;;23.00;43.70;;;;;;1566434;74;1150;-72
2020/12/19 02:00:16;;;;;;;;;;;23.00;43.70;;;;;;1567390;74;731;-71
2020/12/19 02:02:20;;;;;;;;;;;23.00;43.60;;;;;;1569467;74;746;-69
2020/12/19 02:04:23;;;;;;;;;;;23.10;43.90;;;;;;1575966;74;749;-70
2020/12/19 02:06:24;;;;;;;;;;;23.00;43.70;;;;;;1570197;74;783;-72
2020/12/19 02:08:26;;;;;;;;;;;23.00;43.60;;;;;;1578427;74;1167;-72
2020/12/19 02:10:32;;;;;;;;;;;23.00;43.60;;;;;;1568317;74;1942;-70
2020/12/19 02:12:33;;;;;;;;;;;23.00;43.60;;;;;;1575466;74;1150;-72
2020/12/19 02:14:35;;;;;;;;;;;23.00;43.60;;;;;;1573441;74;660;-72
2020/12/19 02:16:37;;;;;;;;;;;23.00;43.70;;;;;;1568572;74;757;-72
2020/12/19 02:18:39;;;;;;;;;;;23.10;43.80;;;;;;1580090;74;1182;-72
2020/12/19 02:20:41;;;;;;;;;;;23.00;43.60;;;;;;1564049;74;742;-72
2020/12/19 02:22:43;;;;;;;;;;;23.00;43.60;;;;;;1576130;74;723;-71
2020/12/19 02:24:45;;;;;;;;;;;23.10;43.80;;;;;;1569081;74;716;-70
2020/12/19 02:26:47;;;;;;;;;;;23.00;43.80;;;;;;1567752;74;743;-70
2020/12/19 02:28:49;;;;;;;;;;;23.00;43.90;;;;;;1566551;74;1102;-72
2020/12/19 02:30:51;;;;;;;;;;;23.00;43.90;;;;;;1567948;74;1919;-72
2020/12/19 02:32:53;;;;;;;;;;;23.10;44.10;;;;;;1570741;74;798;-70
2020/12/19 02:34:55;;;;;;;;;;;23.10;44.00;;;;;;1570311;74;761;-70
2020/12/19 02:36:56;;;;;;;;;;;23.10;43.90;;;;;;1568067;74;706;-70
2020/12/19 02:38:58;;;;;;;;;;;23.10;43.90;;;;;;1567009;74;1146;-69
2020/12/19 02:41:00;;;;;;;;;;;23.10;43.90;;;;;;1578805;74;715;-71
2020/12/19 02:43:02;;;;;;;;;;;23.10;44.00;;;;;;1573508;74;710;-71
2020/12/19 02:45:04;;;;;;;;;;;23.10;44.10;;;;;;1574872;74;696;-73
2020/12/19 02:47:06;;;;;;;;;;;23.10;44.00;;;;;;1575065;74;881;-72
2020/12/19 02:49:08;;;;;;;;;;;23.10;44.10;;;;;;1571463;74;1938;-72
2020/12/19 02:51:10;;;;;;;;;;;23.10;43.90;;;;;;1571366;74;768;-72
2020/12/19 02:53:11;;;;;;;;;;;23.10;44.00;;;;;;1574384;74;722;-72
2020/12/19 02:55:13;;;;;;;;;;;23.10;44.00;;;;;;1577693;74;751;-74
2020/12/19 02:57:15;;;;;;;;;;;23.10;44.00;;;;;;1574489;74;718;-71
2020/12/19 02:59:17;;;;;;;;;;;23.10;44.00;;;;;;1576891;74;1129;-71
2020/12/19 03:01:19;;;;;;;;;;;23.10;44.10;;;;;;1577030;74;738;-70
2020/12/19 03:03:21;;;;;;;;;;;23.10;44.10;;;;;;1580150;74;712;-71
2020/12/19 03:05:23;;;;;;;;;;;23.10;44.20;;;;;;1571378;74;702;-69
2020/12/19 03:07:24;;;;;;;;;;;23.10;44.40;;;;;;1571886;74;671;-69
2020/12/19 03:09:26;;;;;;;;;;;23.10;44.30;;;;;;1567446;74;1971;-71
2020/12/19 03:11:28;;;;;;;;;;;23.10;44.40;;;;;;1577065;74;680;-71
2020/12/19 03:13:30;;;;;;;;;;;23.10;44.40;;;;;;1576237;74;651;-71
2020/12/19 03:15:32;;;;;;;;;;;23.10;44.40;;;;;;1566733;74;684;-71
2020/12/19 03:17:34;;;;;;;;;;;23.10;44.40;;;;;;1562075;74;1214;-73
2020/12/19 03:19:36;;;;;;;;;;;23.10;44.30;;;;;;1571001;74;797;-72
2020/12/19 03:21:38;;;;;;;;;;;23.10;44.60;;;;;;1559959;74;766;-71
2020/12/19 03:23:39;;;;;;;;;;;23.00;44.20;;;;;;1580697;74;692;-71
2020/12/19 03:25:41;;;;;;;;;;;23.10;44.30;;;;;;1573384;74;715;-67
2020/12/19 03:27:43;;;;;;;;;;;23.10;44.40;;;;;;1575340;74;1153;-71
2020/12/19 03:29:45;;;;;;;;;;;23.10;44.20;;;;;;1571433;74;1939;-71
2020/12/19 03:31:47;;;;;;;;;;;23.10;44.30;;;;;;1574138;74;707;-72
2020/12/19 03:33:49;;;;;;;;;;;23.10;44.40;;;;;;1577503;74;717;-72
2020/12/19 03:35:51;;;;;;;;;;;23.00;44.40;;;;;;1567063;74;724;-72
2020/12/19 03:37:52;;;;;;;;;;;23.00;44.40;;;;;;1569391;74;1168;-72
2020/12/19 03:39:54;;;;;;;;;;;23.10;44.50;;;;;;1595223;74;739;-73
2020/12/19 03:41:56;;;;;;;;;;;23.10;44.50;;;;;;1589568;74;749;-71
2020/12/19 03:43:58;;;;;;;;;;;23.10;44.80;;;;;;1567618;74;713;-72
2020/12/19 03:46:00;;;;;;;;;;;23.10;44.70;;;;;;1576924;74;722;-73
2020/12/19 03:48:02;;;;;;;;;;;23.10;44.60;;;;;;1575140;74;1142;-72
2020/12/19 03:50:04;;;;;;;;;;;23.10;45.00;;;;;;1584186;74;1926;-72
2020/12/19 03:52:06;;;;;;;;;;;23.10;44.90;;;;;;1587983;74;691;-71
2020/12/19 03:54:08;;;;;;;;;;;23.20;45.00;;;;;;1575628;74;733;-73
2020/12/19 03:56:10;;;;;;;;;;;23.10;45.00;;;;;;1576069;74;712;-72
2020/12/19 03:58:11;;;;;;;;;;;23.10;45.00;;;;;;1570297;74;1142;-72
2020/12/19 04:00:13;;;;;;;;;;;23.00;44.90;;;;;;1578046;74;713;-73
2020/12/19 04:02:15;;;;;;;;;;;23.00;44.90;;;;;;1566630;74;700;-73
2020/12/19 04:04:17;;;;;;;;;;;23.10;45.40;;;;;;1590881;74;734;-73
2020/12/19 04:06:19;;;;;;;;;;;23.00;45.10;;;;;;1577186;74;730;-71
2020/12/19 04:08:21;;;;;;;;;;;23.00;45.20;;;;;;1573059;74;1183;-72
2020/12/19 04:10:23;;;;;;;;;;;23.00;45.20;;;;;;1591361;74;1942;-72
2020/12/19 04:12:25;;;;;;;;;;;23.00;45.20;;;;;;1562101;74;722;-73
2020/12/19 04:14:37;;;;;;;;;;;22.90;45.30;;;;;;1568926;74;739;-73
2020/12/19 04:16:30;;;;;;;;;;;22.90;45.40;;;;;;1574677;74;1667;-71
2020/12/19 04:18:32;;;;;;;;;;;23.00;45.50;;;;;;1583629;74;1160;-73
2020/12/19 04:20:34;;;;;;;;;;;22.90;45.50;;;;;;1580225;74;710;-72
2020/12/19 04:22:36;;;;;;;;;;;22.90;45.40;;;;;;1581030;74;722;-72
2020/12/19 04:24:37;;;;;;;;;;;22.90;45.80;;;;;;1572646;74;738;-73
2020/12/19 04:26:39;;;;;;;;;;;22.90;45.50;;;;;;1584316;74;724;-71
2020/12/19 04:28:41;;;;;;;;;;;23.00;45.60;;;;;;1572006;74;1185;-70
2020/12/19 04:30:43;;;;;;;;;;;22.90;45.70;;;;;;1557478;74;1939;-71
2020/12/19 04:32:45;;;;;;;;;;;22.90;45.60;;;;;;1581487;74;722;-71
2020/12/19 04:34:47;;;;;;;;;;;22.90;45.80;;;;;;1582149;74;694;-70
2020/12/19 04:36:49;;;;;;;;;;;23.00;45.70;;;;;;1586783;74;784;-71
2020/12/19 04:38:50;;;;;;;;;;;22.90;46.00;;;;;;1566996;74;1168;-71
2020/12/19 04:40:52;;;;;;;;;;;22.90;45.80;;;;;;1567119;74;731;-73
2020/12/19 04:42:54;;;;;;;;;;;23.00;45.70;;;;;;1582738;74;726;-71
2020/12/19 04:44:56;;;;;;;;;;;23.00;45.70;;;;;;1564971;74;719;-73
2020/12/19 04:46:58;;;;;;;;;;;23.10;45.70;;;;;;1589822;74;619;-74
2020/12/19 04:49:00;;;;;;;;;;;23.10;45.70;;;;;;1573338;74;1136;-72
2020/12/19 04:51:02;;;;;;;;;;;23.10;45.70;;;;;;1576351;74;1925;-71
2020/12/19 04:53:05;;;;;;;;;;;23.10;45.60;;;;;;1574763;74;767;-72
2020/12/19 04:55:07;;;;;;;;;;;23.10;45.70;;;;;;1584066;74;1081;-71
2020/12/19 04:57:11;;;;;;;;;;;23.20;45.70;;;;;;1581585;74;642;-71
2020/12/19 04:59:12;;;;;;;;;;;23.10;45.70;;;;;;1581679;74;1129;-72
2020/12/19 05:01:14;;;;;;;;;;;23.20;45.70;;;;;;1564821;74;754;-75
2020/12/19 05:03:16;;;;;;;;;;;23.20;45.60;;;;;;1542051;75;728;-72
2020/12/19 05:05:18;;;;;;;;;;;23.10;45.70;;;;;;1561299;74;727;-72
2020/12/19 05:07:20;;;;;;;;;;;23.10;45.60;;;;;;1577016;74;682;-73
2020/12/19 05:09:22;;;;;;;;;;;23.20;45.80;;;;;;1582441;74;1119;-72
2020/12/19 05:11:24;;;;;;;;;;;23.20;45.50;;;;;;1595628;74;1944;-75
2020/12/19 05:13:26;;;;;;;;;;;23.20;45.50;;;;;;1568599;74;723;-73
2020/12/19 05:15:28;;;;;;;;;;;23.20;45.40;;;;;;1580263;74;701;-73
2020/12/19 05:17:30;;;;;;;;;;;23.20;45.30;;;;;;1573809;74;1184;-73
2020/12/19 05:19:32;;;;;;;;;;;23.30;45.40;;;;;;1579179;74;762;-74
2020/12/19 05:21:43;;;;;;;;;;;23.30;45.30;;;;;;1588477;74;731;-74
2020/12/19 05:23:39;;;;;;;;;;;23.30;45.20;;;;;;1565654;74;987;-74
2020/12/19 05:25:40;;;;;;;;;;;23.20;45.10;;;;;;1564601;74;681;-74
2020/12/19 05:27:43;;;;;;;;;;;23.30;45.10;;;;;;1574736;74;1184;-73
2020/12/19 05:29:45;;;;;;;;;;;23.30;45.10;;;;;;1581103;74;702;-74
2020/12/19 05:31:54;;;;;;;;;;;23.40;45.20;;;;;;1571929;74;1944;-73
2020/12/19 05:33:56;;;;;;;;;;;23.30;45.20;;;;;;1560287;74;727;-72
2020/12/19 05:35:57;;;;;;;;;;;23.30;45.20;;;;;;1549957;75;735;-72
2020/12/19 05:38:00;;;;;;;;;;;23.30;45.20;;;;;;1573459;74;1156;-73
2020/12/19 05:40:04;;;;;;;;;;;23.40;45.10;;;;;;1587147;74;764;-72
2020/12/19 05:42:05;;;;;;;;;;;23.30;45.20;;;;;;1578418;74;1031;-73
2020/12/19 05:44:07;;;;;;;;;;;23.40;45.20;;;;;;1586234;74;793;-73
2020/12/19 05:46:09;;;;;;;;;;;23.30;45.20;;;;;;1556049;74;680;-72
2020/12/19 05:48:11;;;;;;;;;;;23.30;45.00;;;;;;1528816;75;1139;-72
2020/12/19 05:50:13;;;;;;;;;;;23.30;45.30;;;;;;1569014;74;1942;-72
2020/12/19 05:52:15;;;;;;;;;;;23.30;45.20;;;;;;1570256;74;704;-72
2020/12/19 05:54:17;;;;;;;;;;;23.30;45.20;;;;;;1581974;74;704;-71
2020/12/19 05:56:20;;;;;;;;;;;23.30;45.20;;;;;;1577716;74;803;-72
2020/12/19 05:58:22;;;;;;;;;;;23.50;45.20;;;;;;1571867;74;1157;-73
2020/12/19 06:00:23;;;;;;;;;;;23.30;45.20;;;;;;1567366;74;733;-72
2020/12/19 06:02:25;;;;;;;;;;;23.30;45.30;;;;;;1585259;74;732;-72
2020/12/19 06:04:27;;;;;;;;;;;23.30;45.30;;;;;;1563540;74;747;-72
2020/12/19 06:06:30;;;;;;;;;;;23.40;45.30;;;;;;1580780;74;721;-71
2020/12/19 06:08:32;;;;;;;;;;;23.30;45.30;;;;;;1580112;74;1157;-73
2020/12/19 06:10:34;;;;;;;;;;;23.40;45.30;;;;;;1562988;74;1939;-72
2020/12/19 06:12:56;;;;;;;;;;;23.30;45.20;;;;;;1564734;74;774;-72
2020/12/19 06:14:58;;;;;;;;;;;23.30;45.10;;;;;;1565060;74;744;-73
2020/12/19 06:17:00;;;;;;;;;;;23.30;45.20;;;;;;1573434;74;735;-70
2020/12/19 06:19:13;;;;;;;;;;;23.40;45.20;;;;;;1564863;74;1146;-72
2020/12/19 06:21:15;;;;;;;;;;;23.30;45.20;;;;;;1567137;74;728;-74
2020/12/19 06:23:17;;;;;;;;;;;23.40;45.10;;;;;;1557587;74;727;-73
2020/12/19 06:25:36;;;;;;;;;;;23.30;45.40;;;;;;1568987;74;761;-72
2020/12/19 06:27:39;;;;;;;;;;;23.30;45.40;;;;;;1564644;74;1225;-72
2020/12/19 06:29:41;;;;;;;;;;;23.30;45.40;;;;;;1583783;74;732;-71
2020/12/19 06:31:42;;;;;;;;;;;23.40;45.50;;;;;;1575679;74;1954;-70
2020/12/19 06:33:46;;;;;;;;;;;23.30;45.50;;;;;;1576530;74;713;-71
2020/12/19 06:35:48;;;;;;;;;;;23.20;45.50;;;;;;1573757;74;679;-69
2020/12/19 06:37:50;;;;;;;;;;;23.30;45.40;;;;;;1576622;74;1160;-70
2020/12/19 06:40:10;;;;;;;;;;;23.30;45.60;;;;;;1578499;74;607;-72
2020/12/19 06:42:13;;;;;;;;;;;23.40;45.50;;;;;;1570455;74;741;-71
2020/12/19 06:44:15;;;;;;;;;;;23.40;45.60;;;;;;1536543;75;1197;-72
2020/12/19 06:46:32;;;;;;;;;;;23.30;45.50;;;;;;1572514;74;696;-70
2020/12/19 06:48:34;;;;;;;;;;;23.40;45.40;;;;;;1575604;74;1152;-71
2020/12/19 06:50:55;;;;;;;;;;;23.40;45.60;;;;;;1561411;74;1931;-72
2020/12/19 06:53:00;;;;;;;;;;;23.40;45.60;;;;;;1567939;74;701;-69
2020/12/19 06:55:03;;;;;;;;;;;23.30;45.70;;;;;;1575466;74;726;-70
2020/12/19 06:57:05;;;;;;;;;;;23.40;45.70;;;;;;1531195;76;1180;-69
2020/12/19 06:59:07;;;;;;;;;;;23.30;45.70;;;;;;1570329;74;1130;-71
2020/12/19 07:01:28;;;;;;;;;;;23.20;45.60;;;;;;1575468;74;776;-69
2020/12/19 07:03:36;;;;;;;;;;;23.30;45.50;;;;;;1575253;74;791;-71
2020/12/19 07:05:38;;;;;;;;;;;23.30;45.70;;;;;;1565175;74;800;-70
2020/12/19 07:07:40;;;;;;;;;;;23.30;45.60;;;;;;1567297;74;1148;-71
2020/12/19 07:09:42;;;;;;;;;;;23.40;45.80;;;;;;1576882;74;701;-72
2020/12/19 07:11:44;;;;;;;;;;;23.30;45.70;;;;;;1559864;74;1959;-71
2020/12/19 07:13:52;;;;;;;;;;;23.40;45.60;;;;;;1564945;74;853;-72
2020/12/19 07:15:54;;;;;;;;;;;23.30;45.70;;;;;;1569025;74;711;-72
2020/12/19 07:17:56;;;;;;;;;;;23.30;45.60;;;;;;1569911;74;1160;-72
2020/12/19 07:19:59;;;;;;;;;;;23.40;45.70;;;;;;1576043;74;776;-72
2020/12/19 07:22:00;;;;;;;;;;;23.30;45.50;;;;;;1553650;74;731;-72
2020/12/19 07:24:02;;;;;;;;;;;23.40;45.60;;;;;;1566326;74;703;-72
2020/12/19 07:26:04;;;;;;;;;;;23.40;45.50;;;;;;1570334;74;778;-72
2020/12/19 07:28:06;;;;;;;;;;;23.40;45.30;;;;;;1573478;74;1227;-72
2020/12/19 07:30:08;;;;;;;;;;;23.40;45.40;;;;;;1564192;74;707;-72
2020/12/19 07:32:10;;;;;;;;;;;23.40;45.30;;;;;;1566993;74;1945;-72
2020/12/19 07:34:12;;;;;;;;;;;23.40;45.30;;;;;;1578758;74;767;-72
2020/12/19 07:36:14;;;;;;;;;;;23.40;45.30;;;;;;1584233;74;738;-72
2020/12/19 07:38:16;;;;;;;;;;;23.40;45.20;;;;;;1551143;74;1126;-72
2020/12/19 07:40:18;;;;;;;;;;;23.30;45.40;;;;;;1552155;74;750;-73
2020/12/19 07:42:20;;;;;;;;;;;23.40;45.40;;;;;;1557632;74;717;-70
2020/12/19 07:44:22;;;;;;;;;;;23.30;45.60;;;;;;1574534;74;730;-70
2020/12/19 07:46:23;;;;;;;;;;;23.30;45.60;;;;;;1563847;74;728;-70
2020/12/19 07:48:26;;;;;;;;;;;23.30;45.50;;;;;;1570197;74;1146;-70
2020/12/19 07:50:29;;;;;;;;;;;23.40;45.60;;;;;;1553427;74;584;-70
2020/12/19 07:52:31;;;;;;;;;;;23.40;45.50;;;;;;1567892;74;1944;-71
2020/12/19 07:54:33;;;;;;;;;;;23.40;45.60;;;;;;1559578;74;652;-72
2020/12/19 07:56:35;;;;;;;;;;;23.30;45.50;;;;;;1573179;74;732;-71
2020/12/19 07:58:37;;;;;;;;;;;23.40;45.60;;;;;;1566498;74;1130;-70
2020/12/19 08:00:39;;;;;;;;;;;23.40;45.60;;;;;;1567388;74;714;-73
2020/12/19 08:02:42;;;;;;;;;;;23.30;45.60;;;;;;1565066;74;715;-73
2020/12/19 08:04:51;;;;;;;;;;;23.30;45.70;;;;;;1558269;75;707;-73
2020/12/19 08:06:53;;;;;;;;;;;23.40;45.70;;;;;;1561289;75;1039;-74
2020/12/19 08:08:57;;;;;;;;;;;23.40;45.80;;;;;;1561299;75;1145;-75
2020/12/19 08:11:03;;;;;;;;;;;23.40;45.70;;;;;;1552002;75;694;-74
2020/12/19 08:13:06;;;;;;;;;;;23.50;45.70;;;;;;1573130;74;1064;-75
2020/12/19 08:15:10;;;;;;;;;;;23.40;45.60;;;;;;1567391;74;1567;-70
2020/12/19 08:17:17;;;;;;;;;;;23.40;45.60;;;;;;1576038;74;1007;-70
2020/12/19 08:19:20;;;;;;;;;;;23.50;45.80;;;;;;1565447;74;1172;-70
2020/12/19 08:21:22;;;;;;;;;;;23.40;45.80;;;;;;1568483;74;1176;-72
2020/12/19 08:23:24;;;;;;;;;;;23.40;46.20;;;;;;1572102;74;639;-72
2020/12/19 08:25:25;;;;;;;;;;;23.30;46.30;;;;;;1566379;74;768;-75
2020/12/19 08:27:43;;;;;;;;;;;23.40;46.50;;;;;;1563526;75;672;-74
2020/12/19 08:29:45;;;;;;;;;;;23.20;46.90;;;;;;1567733;74;630;-75
2020/12/19 08:31:47;;;;;;;;;;;23.20;46.80;;;;;;1542919;75;1935;-73
2020/12/19 08:33:52;;;;;;;;;;;23.30;46.50;;;;;;1531467;76;1196;-73
2020/12/19 08:35:53;;;;;;;;;;;23.20;46.30;;;;;;1562083;74;738;-73
2020/12/19 08:38:03;;;;;;;;;;;23.30;45.10;;;;;;1579207;74;1149;-74
2020/12/19 08:40:09;;;;;;;;;;;23.30;43.70;;;;;;1562882;74;749;-73
2020/12/19 08:42:10;;;;;;;;;;;23.30;42.60;;;;;;1575456;74;720;-72
2020/12/19 08:44:27;;;;;;;;;;;23.30;41.40;;;;;;1559590;74;741;-75
2020/12/19 08:46:30;;;;;;;;;;;23.30;40.00;;;;;;1576823;74;709;-72
2020/12/19 08:48:31;;;;;;;;;;;23.20;39.40;;;;;;1570873;74;1229;-75
2020/12/19 08:50:35;;;;;;;;;;;23.20;39.20;;;;;;1578856;74;713;-74
2020/12/19 08:52:37;;;;;;;;;;;23.10;38.90;;;;;;1577431;74;1913;-76
2020/12/19 08:54:39;;;;;;;;;;;23.10;38.60;;;;;;1573301;74;797;-76
2020/12/19 08:56:43;;;;;;;;;;;23.10;37.90;;;;;;1566198;74;727;-75
2020/12/19 08:58:53;;;;;;;;;;;22.90;37.00;;;;;;1568135;74;1244;-77
2020/12/19 09:00:56;;;;;;;;;;;22.90;36.50;;;;;;1571451;74;680;-76
2020/12/19 09:02:57;;;;;;;;;;;22.80;36.00;;;;;;1576041;74;611;-73
2020/12/19 09:04:59;;;;;;;;;;;22.80;35.80;;;;;;1560511;74;712;-76
2020/12/19 09:07:01;;;;;;;;;;;22.80;35.40;;;;;;1579996;74;707;-77
2020/12/19 09:09:03;;;;;;;;;;;22.70;35.20;;;;;;1549044;74;1168;-76
2020/12/19 09:11:06;;;;;;;;;;;22.60;35.20;;;;;;1587273;74;731;-77
2020/12/19 09:13:15;;;;;;;;;;;22.70;35.10;;;;;;1568663;74;1949;-79
2020/12/19 09:15:18;;;;;;;;;;;22.60;34.80;;;;;;1553184;74;748;-77
2020/12/19 09:17:29;;;;;;;;;;;22.60;34.70;;;;;;1585843;74;679;-76
2020/12/19 09:19:33;;;;;;;;;;;22.50;34.60;;;;;;1575370;74;681;-75
2020/12/19 09:21:34;;;;;;;;;;;22.50;33.20;;;;;;1558752;74;758;-78
2020/12/19 09:23:36;;;;;;;;;;;22.50;33.30;;;;;;1570536;74;732;-79
2020/12/19 09:25:38;;;;;;;;;;;22.40;33.40;;;;;;1567862;74;731;-76
2020/12/19 09:27:41;;;;;;;;;;;22.40;33.70;;;;;;1561891;74;1177;-76
2020/12/19 09:29:43;;;;;;;;;;;22.40;33.60;;;;;;1574008;74;662;-77
2020/12/19 09:31:45;;;;;;;;;;;22.30;33.80;;;;;;1578542;74;1944;-76
2020/12/19 09:33:47;;;;;;;;;;;22.30;33.70;;;;;;1578994;74;731;-78
2020/12/19 09:35:49;;;;;;;;;;;22.30;33.90;;;;;;1566610;74;729;-77
2020/12/19 09:37:51;;;;;;;;;;;22.30;33.70;;;;;;1553347;74;1127;-77
2020/12/19 09:39:53;;;;;;;;;;;22.30;33.70;;;;;;1581264;74;779;-77
2020/12/19 09:41:54;;;;;;;;;;;22.30;33.50;;;;;;1569568;74;699;-76
2020/12/19 09:43:56;;;;;;;;;;;22.30;33.50;;;;;;1554678;74;754;-76
2020/12/19 09:45:58;;;;;;;;;;;22.20;33.50;;;;;;1549621;75;726;-76
2020/12/19 09:48:00;;;;;;;;;;;22.20;33.40;;;;;;1549497;75;1174;-76
2020/12/19 09:50:03;;;;;;;;;;;22.20;33.50;;;;;;1551865;75;692;-78
2020/12/19 09:52:04;;;;;;;;;;;22.20;33.60;;;;;;1563618;75;1934;-70
2020/12/19 09:54:06;;;;;;;;;;;22.10;33.60;;;;;;1567041;75;699;-77
2020/12/19 09:56:08;;;;;;;;;;;22.20;33.40;;;;;;1564604;75;710;-76
2020/12/19 09:58:10;;;;;;;;;;;22.10;33.40;;;;;;1558883;75;1159;-76
2020/12/19 10:00:12;;;;;;;;;;;22.10;33.10;;;;;;1555292;75;723;-77
2020/12/19 10:02:14;;;;;;;;;;;22.20;33.00;;;;;;1565818;75;728;-77
2020/12/19 10:04:16;;;;;;;;;;;22.10;32.90;;;;;;1569299;75;729;-78
2020/12/19 10:06:18;;;;;;;;;;;22.10;33.10;;;;;;1565672;75;727;-79
2020/12/19 10:08:21;;;;;;;;;;;22.20;33.00;;;;;;1566391;75;1133;-77
2020/12/19 10:10:23;;;;;;;;;;;22.10;32.90;;;;;;1558142;75;728;-77
2020/12/19 10:12:25;;;;;;;;;;;22.10;32.80;;;;;;1561634;74;2082;-74
2020/12/19 10:14:27;;;;;;;;;;;22.10;32.80;;;;;;1568105;74;727;-76
2020/12/19 10:16:29;;;;;;;;;;;22.10;32.80;;;;;;1567609;75;781;-77
2020/12/19 10:18:30;;;;;;;;;;;22.10;32.70;;;;;;1563530;75;1146;-76
2020/12/19 10:20:33;;;;;;;;;;;22.10;32.70;;;;;;1561003;75;762;-76
2020/12/19 10:22:35;;;;;;;;;;;22.00;32.60;;;;;;1544971;75;708;-76
2020/12/19 10:24:37;;;;;;;;;;;22.00;32.60;;;;;;1558720;74;698;-75
2020/12/19 10:26:41;;;;;;;;;;;22.00;32.60;;;;;;1565655;75;679;-76
2020/12/19 10:28:44;;;;;;;;;;;22.00;32.40;;;;;;1549510;75;1139;-77
2020/12/19 10:30:46;;;;;;;;;;;22.00;32.40;;;;;;1566358;75;734;-78
2020/12/19 10:32:48;;;;;;;;;;;22.00;32.30;;;;;;1553219;75;1954;-78
2020/12/19 10:34:50;;;;;;;;;;;22.10;32.40;;;;;;1558736;75;733;-77
2020/12/19 10:36:52;;;;;;;;;;;22.00;32.30;;;;;;1557135;75;728;-79
2020/12/19 10:38:54;;;;;;;;;;;22.00;32.20;;;;;;1566711;75;1140;-78
2020/12/19 10:40:56;;;;;;;;;;;22.00;32.30;;;;;;1554702;75;735;-74
2020/12/19 10:42:58;;;;;;;;;;;22.00;32.40;;;;;;1554434;74;725;-76
2020/12/19 10:45:00;;;;;;;;;;;22.00;32.40;;;;;;1564073;74;715;-76
2020/12/19 10:47:01;;;;;;;;;;;22.00;32.30;;;;;;1567948;74;720;-75
2020/12/19 10:49:03;;;;;;;;;;;21.90;32.20;;;;;;1553169;74;1292;-78
2020/12/19 10:51:05;;;;;;;;;;;21.90;32.20;;;;;;1553340;75;765;-76
2020/12/19 10:53:07;;;;;;;;;;;21.90;32.30;;;;;;1553668;74;1939;-76
2020/12/19 10:55:09;;;;;;;;;;;21.90;32.20;;;;;;1568433;75;733;-76
2020/12/19 10:57:11;;;;;;;;;;;22.00;32.20;;;;;;1554252;75;740;-76
2020/12/19 10:59:13;;;;;;;;;;;21.90;32.20;;;;;;1563141;75;1083;-76
2020/12/19 11:01:14;;;;;;;;;;;22.00;32.10;;;;;;1566445;75;703;-77
2020/12/19 11:03:16;;;;;;;;;;;21.90;32.10;;;;;;1567217;75;753;-77
2020/12/19 11:05:18;;;;;;;;;;;22.00;32.00;;;;;;1566068;75;761;-75
2020/12/19 11:07:20;;;;;;;;;;;21.90;32.00;;;;;;1567193;75;744;-75
2020/12/19 11:09:22;;;;;;;;;;;21.90;32.00;;;;;;1559835;75;1208;-77
2020/12/19 11:11:24;;;;;;;;;;;21.90;32.00;;;;;;1558203;75;750;-74
2020/12/19 11:13:26;;;;;;;;;;;21.90;32.10;;;;;;1550573;74;1930;-77
2020/12/19 11:15:28;;;;;;;;;;;22.00;32.00;;;;;;1563848;74;701;-77
2020/12/19 11:17:30;;;;;;;;;;;22.00;31.90;;;;;;1565154;74;721;-77
2020/12/19 11:19:32;;;;;;;;;;;22.00;31.80;;;;;;1546848;74;732;-78
2020/12/19 11:21:34;;;;;;;;;;;21.90;31.90;;;;;;1566054;75;729;-77
2020/12/19 11:23:38;;;;;;;;;;;21.90;31.80;;;;;;1558927;75;792;-79
2020/12/19 11:25:40;;;;;;;;;;;22.00;31.80;;;;;;1563029;75;706;-78
2020/12/19 11:27:42;;;;;;;;;;;22.00;31.80;;;;;;1558095;75;1153;-77
2020/12/19 11:29:44;;;;;;;;;;;22.00;31.90;;;;;;1562915;75;874;-79
2020/12/19 11:31:48;;;;;;;;;;;21.90;32.50;;;;;;1561360;75;679;-78
2020/12/19 11:33:49;;;;;;;;;;;22.00;32.10;;;;;;1562683;75;1920;-80
2020/12/19 11:35:51;;;;;;;;;;;21.90;32.50;;;;;;1565321;75;735;-77
2020/12/19 11:37:53;;;;;;;;;;;21.90;33.60;;;;;;1562480;75;1162;-77
2020/12/19 11:39:55;;;;;;;;;;;21.90;32.30;;;;;;1564357;75;704;-77
2020/12/19 11:42:01;;;;;;;;;;;21.90;32.30;;;;;;1562801;75;779;-77
2020/12/19 11:44:03;;;;;;;;;;;21.90;32.30;;;;;;1566416;74;618;-76
2020/12/19 11:46:07;;;;;;;;;;;22.00;32.20;;;;;;1560480;74;742;-74
2020/12/19 11:48:09;;;;;;;;;;;22.00;32.20;;;;;;1562563;75;1213;-76
2020/12/19 11:50:11;;;;;;;;;;;21.90;32.20;;;;;;1563531;75;724;-77
2020/12/19 11:52:13;;;;;;;;;;;21.90;32.30;;;;;;1567393;75;669;-78
2020/12/19 11:54:15;;;;;;;;;;;22.00;32.20;;;;;;1566573;75;1946;-80
2020/12/19 11:56:17;;;;;;;;;;;22.00;32.10;;;;;;1565254;75;692;-78
2020/12/19 11:58:19;;;;;;;;;;;21.90;32.30;;;;;;1562880;75;1162;-76
2020/12/19 12:00:20;;;;;;;;;;;21.90;31.90;;;;;;1567423;75;710;-79
2020/12/19 12:02:22;;;;;;;;;;;21.80;31.80;;;;;;1558539;75;757;-79
2020/12/19 12:04:24;;;;;;;;;;;21.90;31.90;;;;;;1564953;75;739;-79
2020/12/19 12:06:28;;;;;;;;;;;21.90;32.30;;;;;;1562041;75;773;-82
2020/12/19 12:08:30;;;;;;;;;;;21.90;32.70;;;;;;1566236;74;1159;-77
2020/12/19 12:10:31;;;;;;;;;;;21.90;32.20;;;;;;1563970;75;694;-76